Time;durP1;ratioP1;P1;durP2;ratioP2;P2;SDS_P1;SDS_P2;PMS_P1;PMS_P2;Temp;Humidity;BMP_temperature;BMP_pressure;BME280_temperature;BME280_humidity;BME280_pressure;Samples;Min_cycle;Max_cycle;Signal;HPM_P1;HPM_P2
2022/11/26 05:02:01;;;;;;;18.40;5.93;;;7.50;99.90;;;;;;5169620;23;20052;-70
2022/11/26 05:04:28;;;;;;;20.37;6.53;;;7.50;99.90;;;;;;4917977;29;20036;-71
2022/11/26 05:06:54;;;;;;;;;;;7.60;99.90;;;;;;4920287;29;20132;-71
2022/11/26 05:09:19;;;;;;;37.95;8.77;;;7.50;99.90;;;;;;4919822;29;19938;-71
2022/11/26 05:11:45;;;;;;;27.47;7.10;;;7.50;99.90;;;;;;4918085;29;20505;-71
2022/11/26 05:14:11;;;;;;;18.70;6.53;;;7.40;99.90;;;;;;4919243;29;20096;-70
2022/11/26 05:16:36;;;;;;;20.30;6.13;;;7.40;99.90;;;;;;4920443;29;20024;-74
2022/11/26 05:19:02;;;;;;;18.73;6.70;;;7.50;99.90;;;;;;4919645;29;20020;-73
2022/11/26 05:21:27;;;;;;;20.77;6.40;;;7.50;99.90;;;;;;4929540;29;20032;-74
2022/11/26 05:23:53;;;;;;;17.17;6.10;;;7.60;99.90;;;;;;4929039;29;20505;-74
2022/11/26 05:26:18;;;;;;;21.63;6.47;;;7.70;99.90;;;;;;4927805;29;20028;-74
2022/11/26 05:28:44;;;;;;;21.80;6.07;;;7.60;99.90;;;;;;4924871;29;20099;-74
2022/11/26 05:31:10;;;;;;;21.77;6.83;;;7.70;99.90;;;;;;4922289;29;20032;-73
2022/11/26 05:33:36;;;;;;;20.48;6.22;;;7.70;99.90;;;;;;4922496;29;20020;-74
2022/11/26 05:36:02;;;;;;;16.52;6.55;;;7.70;99.90;;;;;;4927362;29;20042;-73
2022/11/26 05:38:28;;;;;;;15.02;6.28;;;7.70;99.90;;;;;;4927401;29;20092;-73
2022/11/26 05:40:53;;;;;;;22.77;6.10;;;7.80;99.90;;;;;;4919188;29;20108;-73
2022/11/26 05:43:19;;;;;;;19.77;6.47;;;7.70;99.90;;;;;;4903548;29;20035;-73
2022/11/26 05:45:45;;;;;;;19.83;6.77;;;7.70;99.90;;;;;;4901814;29;20037;-73
2022/11/26 05:48:10;;;;;;;18.57;6.57;;;7.70;99.90;;;;;;4902863;29;20084;-74
2022/11/26 05:50:36;;;;;;;25.37;6.90;;;7.70;99.90;;;;;;4919467;29;20047;-74
2022/11/26 05:53:02;;;;;;;24.47;7.50;;;7.60;99.90;;;;;;4898577;29;20036;-73
2022/11/26 05:55:27;;;;;;;21.08;6.93;;;7.50;99.90;;;;;;4883362;29;20567;-73
2022/11/26 05:57:53;;;;;;;21.63;6.43;;;7.60;99.90;;;;;;4896373;29;20055;-73
2022/11/26 06:00:18;;;;;;;22.23;7.23;;;7.50;99.90;;;;;;4881468;29;20052;-73
2022/11/26 06:02:44;;;;;;;24.37;7.53;;;7.40;99.90;;;;;;4896017;29;20033;-73
2022/11/26 06:05:10;;;;;;;16.17;7.03;;;7.40;99.90;;;;;;4881492;29;20261;-73
2022/11/26 06:07:36;;;;;;;29.65;6.82;;;7.40;99.90;;;;;;4881345;29;20401;-72
2022/11/26 06:10:02;;;;;;;20.50;7.83;;;7.50;99.90;;;;;;4882409;29;20033;-72
2022/11/26 06:12:28;;;;;;;23.17;7.40;;;7.40;99.90;;;;;;4898778;29;20379;-73
2022/11/26 06:14:54;;;;;;;20.63;7.27;;;7.30;99.90;;;;;;4902497;29;20117;-75
2022/11/26 06:17:19;;;;;;;21.40;7.53;;;7.40;99.90;;;;;;4902808;29;20064;-74
2022/11/26 06:19:45;;;;;;;20.83;6.53;;;7.30;99.90;;;;;;4898990;29;20033;-73
2022/11/26 06:22:10;;;;;;;24.47;7.00;;;7.50;99.90;;;;;;4900195;29;20107;-73
2022/11/26 06:24:36;;;;;;;19.80;7.47;;;7.60;99.90;;;;;;4898841;29;20031;-73
2022/11/26 06:27:02;;;;;;;19.23;7.65;;;7.70;99.90;;;;;;4898561;29;20028;-73
2022/11/26 06:29:27;;;;;;;17.53;6.87;;;7.60;99.90;;;;;;4899446;29;20043;-73
2022/11/26 06:31:53;;;;;;;20.27;8.33;;;7.60;99.90;;;;;;4898105;29;20398;-74
2022/11/26 06:34:18;;;;;;;15.73;7.23;;;7.60;99.90;;;;;;4899379;29;20025;-74
2022/11/26 06:36:44;;;;;;;23.63;7.37;;;7.60;99.90;;;;;;4898686;29;20024;-74
2022/11/26 06:39:10;;;;;;;26.37;8.03;;;7.70;99.90;;;;;;4900069;29;20049;-74
2022/11/26 06:41:36;;;;;;;21.10;7.50;;;7.70;99.90;;;;;;4901518;29;20035;-74
2022/11/26 06:44:02;;;;;;;29.58;7.97;;;7.70;99.90;;;;;;4900457;29;20496;-74
2022/11/26 06:46:28;;;;;;;20.13;7.93;;;7.60;99.90;;;;;;4899506;29;20029;-74
2022/11/26 06:48:53;;;;;;;24.23;8.27;;;7.60;99.90;;;;;;4898881;29;20036;-74
2022/11/26 06:51:20;;;;;;;25.88;8.00;;;7.60;99.90;;;;;;4900330;29;20036;-74
2022/11/26 06:53:46;;;;;;;25.52;8.43;;;7.70;99.90;;;;;;4913609;29;20050;-73
2022/11/26 06:56:14;;;;;;;21.75;8.25;;;7.50;99.90;;;;;;4905689;29;20024;-74
2022/11/26 06:58:40;;;;;;;31.23;8.55;;;7.50;99.90;;;;;;4930807;29;20028;-74
2022/11/26 07:01:10;;;;;;;20.27;7.80;;;7.50;99.90;;;;;;4918723;29;20055;-74
2022/11/26 07:03:36;;;;;;;23.85;7.95;;;7.50;99.90;;;;;;4898283;29;20081;-74
2022/11/26 07:06:02;;;;;;;23.13;7.95;;;7.60;99.90;;;;;;4894297;29;20053;-74
2022/11/26 07:08:28;;;;;;;28.95;9.30;;;7.40;99.90;;;;;;4907618;29;20104;-72
2022/11/26 07:10:53;;;;;;;27.67;9.20;;;7.30;99.90;;;;;;4891310;29;20071;-74
2022/11/26 07:13:19;;;;;;;22.50;9.50;;;7.20;99.90;;;;;;4914457;29;20028;-73
2022/11/26 07:15:44;;;;;;;23.90;9.43;;;7.20;99.90;;;;;;4914341;29;20092;-74
2022/11/26 07:18:10;;;;;;;24.03;9.80;;;7.20;99.90;;;;;;4903748;29;20028;-74
2022/11/26 07:20:36;;;;;;;21.80;8.67;;;7.20;99.90;;;;;;4902903;29;20035;-74
2022/11/26 07:23:03;;;;;;;26.30;9.88;;;7.10;99.90;;;;;;4903595;29;20107;-75
2022/11/26 07:25:29;;;;;;;25.58;9.10;;;7.10;99.90;;;;;;4913300;29;20028;-73
2022/11/26 07:27:55;;;;;;;23.85;8.55;;;7.10;99.90;;;;;;4912889;29;20024;-73
2022/11/26 07:30:21;;;;;;;22.63;8.68;;;7.10;99.90;;;;;;4898436;29;20036;-73
2022/11/26 07:32:46;;;;;;;24.90;9.47;;;7.20;99.90;;;;;;4912903;29;20143;-71
2022/11/26 07:35:12;;;;;;;26.03;8.57;;;7.20;99.90;;;;;;4912706;29;20025;-71
2022/11/26 07:37:38;;;;;;;27.60;10.07;;;7.30;99.90;;;;;;4898485;29;20025;-71
2022/11/26 07:40:05;;;;;;;25.77;10.03;;;7.30;99.90;;;;;;4913026;29;20276;-71
2022/11/26 07:42:32;;;;;;;27.52;11.00;;;7.30;99.90;;;;;;4898574;29;20035;-72
2022/11/26 07:44:58;;;;;;;30.65;10.10;;;7.10;99.90;;;;;;4898396;29;20060;-72
2022/11/26 07:47:24;;;;;;;23.63;9.30;;;7.20;99.90;;;;;;4897207;29;20074;-72
2022/11/26 07:49:50;;;;;;;22.02;9.95;;;7.20;99.90;;;;;;4897105;29;20039;-71
2022/11/26 07:52:15;;;;;;;27.63;10.00;;;7.20;99.90;;;;;;4898075;29;20037;-71
2022/11/26 07:54:41;;;;;;;24.57;9.77;;;7.20;99.90;;;;;;4898693;29;20118;-72
2022/11/26 07:57:07;;;;;;;25.50;9.63;;;7.20;99.90;;;;;;4897701;29;20021;-73
2022/11/26 07:59:32;;;;;;;30.53;9.80;;;7.30;99.90;;;;;;4897797;29;20032;-70
2022/11/26 08:01:58;;;;;;;23.13;10.33;;;7.30;99.90;;;;;;4895126;29;20042;-72
2022/11/26 08:04:23;;;;;;;25.87;10.00;;;7.20;99.90;;;;;;4897752;29;20028;-72
2022/11/26 08:06:49;;;;;;;31.90;10.43;;;7.10;99.90;;;;;;4878888;29;20036;-73
2022/11/26 08:09:14;;;;;;;29.10;9.60;;;7.20;99.90;;;;;;4878740;29;20029;-72
2022/11/26 08:11:40;;;;;;;25.30;9.93;;;7.30;99.90;;;;;;4878942;29;20025;-72
2022/11/26 08:14:10;;;;;;;22.70;9.90;;;7.40;99.90;;;;;;4893893;29;20111;-71
2022/11/26 08:16:35;;;;;;;31.98;10.93;;;7.30;99.90;;;;;;4879537;29;20039;-71
2022/11/26 08:19:05;;;;;;;27.00;10.50;;;7.30;99.90;;;;;;4877904;29;20029;-71
2022/11/26 08:21:31;;;;;;;23.75;10.13;;;7.30;99.90;;;;;;4879938;29;20057;-72
2022/11/26 08:23:57;;;;;;;;;;;7.40;99.90;;;;;;4883519;29;20037;-76
2022/11/26 08:26:24;;;;;;;26.08;9.25;;;7.60;99.90;;;;;;4880560;29;19912;-73
2022/11/26 08:28:50;;;;;;;24.27;9.55;;;7.60;99.90;;;;;;4880728;29;20572;-73
2022/11/26 08:31:16;;;;;;;32.63;10.07;;;7.60;99.90;;;;;;4895248;29;20041;-73
2022/11/26 08:33:42;;;;;;;29.25;10.48;;;7.60;99.90;;;;;;4881619;29;20108;-73
2022/11/26 08:36:09;;;;;;;24.13;9.45;;;7.80;99.90;;;;;;4896490;29;20061;-74
2022/11/26 08:38:35;;;;;;;;;;;7.90;99.90;;;;;;4900393;29;20033;-72
2022/11/26 08:41:02;;;;;;;23.65;9.23;;;7.80;99.90;;;;;;4897726;29;19998;-73
2022/11/26 08:43:29;;;;;;;23.98;10.10;;;7.90;99.90;;;;;;4884883;29;20549;-73
2022/11/26 08:45:57;;;;;;;23.60;9.70;;;7.90;99.90;;;;;;4884340;29;20033;-73
2022/11/26 08:48:24;;;;;;;28.38;10.23;;;7.90;99.90;;;;;;4882787;29;20025;-72
2022/11/26 08:50:50;;;;;;;27.63;10.05;;;7.80;99.90;;;;;;4882556;29;20040;-73
2022/11/26 08:53:16;;;;;;;34.78;10.18;;;7.90;99.90;;;;;;4883678;29;20025;-73
2022/11/26 08:55:42;;;;;;;25.45;9.35;;;8.10;99.90;;;;;;4881849;29;20028;-73
2022/11/26 08:58:08;;;;;;;25.37;10.13;;;8.20;99.90;;;;;;4886251;29;20031;-72
2022/11/26 09:00:34;;;;;;;19.38;9.13;;;8.20;99.90;;;;;;4900985;29;20040;-73
2022/11/26 09:03:00;;;;;;;32.92;13.38;;;8.20;99.90;;;;;;4901800;29;20513;-73
2022/11/26 09:05:25;;;;;;;23.53;9.70;;;8.30;99.90;;;;;;4890152;29;20033;-72
2022/11/26 09:07:51;;;;;;;20.13;9.20;;;8.10;99.90;;;;;;4880976;29;20276;-73
2022/11/26 09:10:16;;;;;;;19.70;9.87;;;8.00;99.90;;;;;;4881147;29;20032;-73
2022/11/26 09:12:42;;;;;;;27.27;9.97;;;7.80;99.90;;;;;;4884939;29;20043;-73
2022/11/26 09:15:08;;;;;;;31.83;10.47;;;7.80;99.90;;;;;;4884479;29;20105;-72
2022/11/26 09:17:34;;;;;;;19.20;9.57;;;7.90;99.90;;;;;;4884915;29;20033;-73
2022/11/26 09:20:00;;;;;;;27.42;11.00;;;7.80;99.90;;;;;;4882440;29;20033;-73
2022/11/26 09:22:25;;;;;;;22.70;9.33;;;7.90;99.90;;;;;;4881438;29;20021;-73
2022/11/26 09:24:51;;;;;;;19.93;10.60;;;8.00;99.90;;;;;;4882868;29;20064;-73
2022/11/26 09:27:17;;;;;;;18.97;9.33;;;8.00;99.90;;;;;;4881235;29;20119;-72
2022/11/26 09:29:42;;;;;;;20.90;10.10;;;7.90;99.90;;;;;;4887033;29;20033;-73
2022/11/26 09:32:08;;;;;;;21.83;9.57;;;7.90;99.90;;;;;;4913457;29;20107;-73
2022/11/26 09:34:34;;;;;;;25.95;9.82;;;7.90;99.90;;;;;;4894677;29;20024;-72
2022/11/26 09:37:00;;;;;;;21.92;10.32;;;7.90;99.90;;;;;;4915570;29;20438;-75
2022/11/26 09:39:26;;;;;;;27.33;9.47;;;8.00;99.90;;;;;;4915247;29;20028;-73
2022/11/26 09:42:05;;;;;;;25.35;9.63;;;7.90;99.90;;;;;;4899704;29;20057;-68
2022/11/26 09:44:34;;;;;;;22.38;10.05;;;8.00;99.90;;;;;;4880839;29;20112;-67
2022/11/26 09:47:24;;;;;;;25.17;9.55;;;8.20;99.90;;;;;;4899754;29;20533;-67
2022/11/26 09:50:14;;;;;;;21.60;9.07;;;8.50;99.90;;;;;;4895265;29;20033;-67
2022/11/26 09:52:58;;;;;;;20.63;8.80;;;8.60;99.90;;;;;;4889613;29;20037;-68
2022/11/26 09:55:28;;;;;;;23.90;8.70;;;8.80;99.90;;;;;;4887261;29;20039;-69
2022/11/26 09:58:06;;;;;;;19.35;7.90;;;9.10;99.90;;;;;;4900962;29;20397;-70
2022/11/26 10:00:38;;;;;;;15.80;6.13;;;9.10;99.90;;;;;;4891904;29;20025;-70
2022/11/26 10:03:13;;;;;;;18.15;6.80;;;9.10;99.90;;;;;;4881165;29;20105;-70
2022/11/26 10:06:00;;;;;;;21.48;6.10;;;9.10;99.90;;;;;;4881457;29;20029;-69
2022/11/26 10:08:54;;;;;;;16.58;5.22;;;9.10;99.90;;;;;;4888382;29;20462;-70
2022/11/26 10:11:32;;;;;;;20.85;5.32;;;9.10;99.90;;;;;;4885100;29;20039;-67
2022/11/26 10:14:22;;;;;;;17.63;5.55;;;9.40;99.90;;;;;;4891742;29;20100;-68
2022/11/26 10:17:37;;;;;;;17.33;5.22;;;9.70;99.90;;;;;;4899112;29;20087;-71
2022/11/26 10:20:35;;;;;;;13.82;5.22;;;9.60;99.90;;;;;;4816845;29;20095;-68
2022/11/26 10:23:31;;;;;;;13.25;4.95;;;9.80;99.90;;;;;;4818981;29;20058;-66
2022/11/26 10:26:16;;;;;;;13.80;4.30;;;9.60;99.90;;;;;;4818882;29;20055;-69
2022/11/26 10:28:46;;;;;;;15.55;4.60;;;9.30;99.90;;;;;;4824301;29;20502;-69
2022/11/26 10:31:24;;;;;;;17.00;5.30;;;9.40;99.90;;;;;;4823565;29;20042;-70
2022/11/26 10:33:57;;;;;;;12.48;4.57;;;9.30;99.90;;;;;;4823548;29;20160;-68
2022/11/26 10:36:31;;;;;;;15.77;4.60;;;9.20;99.90;;;;;;4822726;29;20031;-71
2022/11/26 10:38:57;;;;;;;16.73;5.18;;;9.30;99.90;;;;;;4808289;29;20030;-67
2022/11/26 10:41:26;;;;;;;12.33;4.20;;;9.50;99.90;;;;;;4823832;29;20102;-68
2022/11/26 10:43:52;;;;;;;16.23;4.43;;;9.80;99.90;;;;;;4808115;29;20120;-67
2022/11/26 10:46:34;;;;;;;22.17;4.43;;;9.80;99.90;;;;;;4810090;29;20073;-71
2022/11/26 10:49:27;;;;;;;11.50;3.92;;;10.10;99.90;;;;;;4811455;29;20306;-71
2022/11/26 10:52:01;;;;;;;17.02;4.07;;;10.10;99.90;;;;;;4822848;29;20038;-70
2022/11/26 10:54:30;;;;;;;15.95;4.03;;;10.10;99.90;;;;;;4864474;29;20041;-70
2022/11/26 10:57:07;;;;;;;14.18;4.15;;;10.30;99.90;;;;;;4879541;29;20029;-67
2022/11/26 10:59:53;;;;;;;12.52;4.28;;;10.30;99.90;;;;;;4880549;29;20033;-70
2022/11/26 11:02:19;;;;;;;15.52;4.57;;;9.90;99.90;;;;;;4881798;29;20049;-70
2022/11/26 11:04:48;;;;;;;16.93;5.10;;;9.60;99.90;;;;;;4883814;29;20137;-69
2022/11/26 11:07:34;;;;;;;19.65;4.60;;;9.70;99.90;;;;;;4886385;29;20527;-69
2022/11/26 11:10:04;;;;;;;15.80;4.43;;;10.00;99.90;;;;;;4894234;29;20033;-68
2022/11/26 11:12:30;;;;;;;20.35;5.00;;;10.10;99.90;;;;;;4879946;29;20032;-70
2022/11/26 11:15:19;;;;;;;13.27;4.67;;;10.20;99.90;;;;;;4880377;29;20033;-69
2022/11/26 11:17:46;;;;;;;9.43;4.35;;;10.20;99.90;;;;;;4895079;29;20474;-67
2022/11/26 11:20:14;;;;;;;19.77;5.00;;;10.00;99.90;;;;;;4895740;29;20112;-69
2022/11/26 11:22:45;;;;;;;14.60;4.70;;;10.00;99.90;;;;;;4899043;29;20153;-71
2022/11/26 11:25:22;;;;;;;16.15;4.70;;;9.60;99.90;;;;;;4914315;29;20039;-69
2022/11/26 11:27:48;;;;;;;14.52;4.20;;;9.40;99.90;;;;;;4889079;29;20033;-70
2022/11/26 11:30:33;;;;;;;13.57;3.80;;;9.50;99.90;;;;;;4879131;29;20037;-70
2022/11/26 11:33:21;;;;;;;11.88;4.45;;;9.60;99.90;;;;;;4893897;29;20037;-70
2022/11/26 11:36:22;;;;;;;19.05;4.40;;;9.60;99.90;;;;;;4889066;29;20025;-70
2022/11/26 11:38:57;;;;;;;18.58;5.97;;;9.60;99.90;;;;;;4883960;29;20513;-70
2022/11/26 11:41:36;;;;;;;13.07;4.35;;;9.80;99.90;;;;;;4897093;29;20032;-70
2022/11/26 11:44:24;;;;;;;12.27;4.50;;;10.00;99.90;;;;;;4897242;29;20074;-70
2022/11/26 11:47:06;;;;;;;13.85;4.00;;;10.30;99.90;;;;;;4898455;29;20031;-70
2022/11/26 11:49:44;;;;;;;16.58;4.88;;;10.50;99.90;;;;;;4896948;29;20438;-70
2022/11/26 11:52:25;;;;;;;14.70;4.72;;;10.30;99.90;;;;;;4898208;29;20481;-70
2022/11/26 11:55:03;;;;;;;10.93;4.13;;;10.20;99.90;;;;;;4900362;29;20505;-70
2022/11/26 11:57:37;;;;;;;13.93;4.15;;;10.00;99.90;;;;;;4893549;29;20021;-70
2022/11/26 12:00:12;;;;;;;14.18;4.53;;;9.80;99.90;;;;;;4879649;29;20049;-70
2022/11/26 12:03:01;;;;;;;16.83;4.93;;;10.00;99.90;;;;;;4879290;29;20119;-70
2022/11/26 12:05:30;;;;;;;14.40;4.53;;;10.10;99.90;;;;;;4879993;29;20037;-72
2022/11/26 12:08:11;;;;;;;10.98;3.70;;;10.50;99.90;;;;;;4898046;29;20025;-69
2022/11/26 12:10:55;;;;;;;13.18;4.45;;;10.60;99.90;;;;;;4898417;29;20025;-69
2022/11/26 12:13:22;;;;;;;12.15;3.35;;;10.70;99.90;;;;;;4898403;29;20028;-70
2022/11/26 12:15:59;;;;;;;13.63;3.85;;;10.50;99.90;;;;;;4900633;29;20065;-70
2022/11/26 12:18:55;;;;;;;12.23;3.90;;;10.30;99.90;;;;;;4901072;29;20029;-70
2022/11/26 12:21:42;;;;;;;14.80;4.55;;;10.30;99.90;;;;;;4916064;29;20021;-70
2022/11/26 12:24:21;;;;;;;11.52;3.90;;;10.90;99.90;;;;;;4900801;29;20052;-70
2022/11/26 12:27:22;;;;;;;13.27;4.55;;;11.00;99.90;;;;;;4884388;29;20512;-70
2022/11/26 12:29:54;;;;;;;9.70;3.40;;;10.80;99.90;;;;;;4882879;29;20033;-69
2022/11/26 12:32:39;;;;;;;12.65;4.18;;;10.60;99.90;;;;;;4898622;29;20029;-71
2022/11/26 12:35:16;;;;;;;20.95;4.00;;;10.60;99.90;;;;;;4901048;29;20020;-70
2022/11/26 12:37:42;;;;;;;15.68;3.70;;;10.40;99.90;;;;;;4882607;29;20051;-70
2022/11/26 12:40:33;;;;;;;18.83;4.88;;;10.20;99.90;;;;;;4882531;29;20029;-71
2022/11/26 12:43:31;;;;;;;15.07;3.78;;;10.00;99.90;;;;;;4882846;29;20119;-70
2022/11/26 12:46:00;;;;;;;12.25;3.40;;;10.00;99.90;;;;;;4889359;29;20033;-70
2022/11/26 12:48:44;;;;;;;12.32;3.63;;;10.20;99.90;;;;;;4881068;29;20025;-70
2022/11/26 12:51:27;;;;;;;13.45;3.50;;;10.10;99.90;;;;;;4886665;29;20063;-70
2022/11/26 12:54:22;;;;;;;16.83;4.00;;;10.20;99.90;;;;;;4901585;29;20054;-70
2022/11/26 12:57:22;;;;;;;14.43;3.65;;;10.10;99.90;;;;;;4900854;29;20101;-70
2022/11/26 12:59:57;;;;;;;13.77;3.78;;;10.00;99.90;;;;;;4890839;29;20028;-69
2022/11/26 13:02:29;;;;;;;11.45;3.45;;;10.10;99.90;;;;;;4898489;29;20116;-70
2022/11/26 13:04:56;;;;;;;14.15;3.58;;;10.10;99.90;;;;;;4897183;29;20029;-70
2022/11/26 13:07:48;;;;;;;17.45;3.88;;;10.20;99.90;;;;;;4882466;29;20088;-69
2022/11/26 13:10:47;;;;;;;13.70;3.75;;;10.30;99.90;;;;;;4898191;29;20084;-70
2022/11/26 13:13:44;;;;;;;11.32;3.47;;;10.40;99.90;;;;;;4882083;29;20029;-71
2022/11/26 13:16:19;;;;;;;10.13;3.40;;;10.50;99.90;;;;;;4847430;29;20065;-71
2022/11/26 13:18:49;;;;;;;14.40;4.00;;;10.50;99.90;;;;;;4846301;29;20095;-71
2022/11/26 13:21:35;;;;;;;12.85;3.75;;;10.50;99.90;;;;;;4861079;29;20034;-70
2022/11/26 13:24:22;;;;;;;10.07;3.70;;;10.50;99.90;;;;;;4863332;29;20032;-71
2022/11/26 13:27:38;;;;;;;15.32;4.65;;;10.40;99.90;;;;;;4879772;29;20045;-71
2022/11/26 13:30:16;;;;;;;13.50;4.45;;;10.20;99.90;;;;;;4877797;29;20144;-70
2022/11/26 13:32:56;;;;;;;10.27;3.67;;;10.10;99.90;;;;;;4878962;29;20048;-71
2022/11/26 13:35:58;;;;;;;12.75;3.58;;;10.00;99.90;;;;;;4879622;29;20157;-70
2022/11/26 13:38:45;;;;;;;12.95;3.45;;;10.00;99.90;;;;;;4880124;29;20041;-71
2022/11/26 13:41:29;;;;;;;8.65;3.72;;;10.00;99.90;;;;;;4879384;29;20069;-70
2022/11/26 13:44:19;;;;;;;14.18;3.60;;;9.90;99.90;;;;;;4879724;29;20033;-71
2022/11/26 13:46:53;;;;;;;12.93;3.55;;;10.00;99.90;;;;;;4881262;29;20124;-70
2022/11/26 13:49:43;;;;;;;13.38;3.60;;;10.10;99.90;;;;;;4877797;29;20040;-70
2022/11/26 13:52:20;;;;;;;10.35;3.33;;;10.00;99.90;;;;;;4892955;29;20401;-71
2022/11/26 13:55:09;;;;;;;;;;;9.90;99.90;;;;;;4900823;29;20177;-70
2022/11/26 13:57:40;;;;;;;10.75;3.80;;;9.90;99.90;;;;;;4895997;29;19912;-71
2022/11/26 14:00:07;;;;;;;8.23;3.10;;;9.90;99.90;;;;;;4900838;29;20061;-72
2022/11/26 14:02:33;;;;;;;8.48;3.03;;;9.90;99.90;;;;;;4901166;29;20051;-70
2022/11/26 14:05:08;;;;;;;8.63;3.30;;;9.80;99.90;;;;;;4898425;29;20029;-69
2022/11/26 14:07:34;;;;;;;9.48;3.38;;;9.80;99.90;;;;;;4881732;29;20270;-71
2022/11/26 14:10:02;;;;;;;12.48;2.83;;;9.70;99.90;;;;;;4881010;29;20029;-71
2022/11/26 14:13:01;;;;;;;12.65;2.75;;;9.70;99.90;;;;;;4881597;29;20025;-70
2022/11/26 14:15:42;;;;;;;12.00;3.28;;;9.60;99.90;;;;;;4881770;29;20029;-70
2022/11/26 14:18:16;;;;;;;11.30;2.97;;;9.60;99.90;;;;;;4880227;29;20495;-70
2022/11/26 14:21:00;;;;;;;10.20;3.55;;;9.50;99.90;;;;;;4895853;29;20395;-71
2022/11/26 14:23:52;;;;;;;12.45;3.00;;;9.50;99.90;;;;;;4882155;29;20158;-71
2022/11/26 14:26:38;;;;;;;18.10;3.03;;;9.40;99.90;;;;;;4897150;29;20057;-71
2022/11/26 14:29:06;;;;;;;12.23;2.90;;;9.30;99.90;;;;;;4899159;29;20020;-71
2022/11/26 14:31:33;;;;;;;10.85;2.55;;;9.30;99.90;;;;;;4901544;29;20028;-71
2022/11/26 14:34:10;;;;;;;9.52;2.70;;;9.30;99.90;;;;;;4900646;29;20072;-70
2022/11/26 14:36:54;;;;;;;11.93;3.17;;;9.30;99.90;;;;;;4913794;29;20475;-70
2022/11/26 14:39:19;;;;;;;10.02;3.72;;;9.30;99.90;;;;;;4899854;29;20036;-71
2022/11/26 14:41:45;;;;;;;13.40;4.00;;;9.30;99.90;;;;;;4898257;29;20037;-70
2022/11/26 14:44:13;;;;;;;8.27;2.70;;;9.30;99.90;;;;;;4899311;29;20029;-70
2022/11/26 14:46:40;;;;;;;14.35;3.53;;;9.30;99.90;;;;;;4899758;29;20069;-70
2022/11/26 14:49:34;;;;;;;9.63;3.00;;;9.20;99.90;;;;;;4913832;29;20420;-71
2022/11/26 14:52:03;;;;;;;9.70;3.00;;;9.20;99.90;;;;;;4897804;29;20028;-70
2022/11/26 14:54:32;;;;;;;6.53;2.83;;;9.20;99.90;;;;;;4913699;29;20024;-71
2022/11/26 14:57:04;;;;;;;11.68;3.58;;;9.10;99.90;;;;;;4899002;29;20359;-70
2022/11/26 14:59:30;;;;;;;15.55;4.47;;;9.20;99.90;;;;;;4898996;29;20021;-70
2022/11/26 15:01:55;;;;;;;8.87;3.07;;;9.10;99.90;;;;;;4899244;29;20043;-70
2022/11/26 15:04:33;;;;;;;6.67;2.57;;;9.20;99.90;;;;;;4913745;29;20071;-71
2022/11/26 15:06:59;;;;;;;12.63;3.88;;;9.20;99.90;;;;;;4898133;29;20028;-70
2022/11/26 15:09:26;;;;;;;10.40;4.10;;;9.20;99.90;;;;;;4899015;29;20042;-71
2022/11/26 15:12:13;;;;;;;14.13;3.95;;;9.10;99.90;;;;;;4898739;29;20036;-71
2022/11/26 15:14:53;;;;;;;14.05;4.00;;;8.90;99.90;;;;;;4913848;29;20056;-70
2022/11/26 15:17:21;;;;;;;16.23;3.65;;;8.90;99.90;;;;;;4898868;29;20025;-71
2022/11/26 15:19:50;;;;;;;14.65;3.70;;;8.80;99.90;;;;;;4880118;29;20428;-70
2022/11/26 15:22:26;;;;;;;8.35;3.00;;;8.70;99.90;;;;;;4879734;29;20478;-70
2022/11/26 15:24:53;;;;;;;5.78;2.67;;;8.60;99.90;;;;;;4881272;29;20029;-71
2022/11/26 15:27:36;;;;;;;9.63;2.88;;;8.50;99.90;;;;;;4885839;29;20028;-71
2022/11/26 15:30:20;;;;;;;7.85;3.20;;;8.50;99.90;;;;;;4879234;29;20041;-71
2022/11/26 15:32:46;;;;;;;8.75;3.88;;;8.50;99.90;;;;;;4889704;29;20025;-71
2022/11/26 15:35:14;;;;;;;7.77;3.40;;;8.40;99.90;;;;;;4897385;29;20024;-71
2022/11/26 15:37:39;;;;;;;11.52;3.08;;;8.30;99.90;;;;;;4898063;29;20043;-71
2022/11/26 15:40:49;;;;;;;12.67;3.83;;;8.20;99.90;;;;;;4895599;29;20032;-70
2022/11/26 15:43:39;;;;;;;8.18;3.10;;;8.30;99.90;;;;;;4895363;29;20072;-70
2022/11/26 15:46:23;;;;;;;8.25;3.08;;;8.30;99.90;;;;;;4898478;29;20032;-71
2022/11/26 15:49:02;;;;;;;6.55;2.80;;;8.20;99.90;;;;;;4897670;29;20029;-71
2022/11/26 15:51:35;;;;;;;8.85;2.60;;;8.20;99.90;;;;;;4905419;29;20032;-71
2022/11/26 15:54:03;;;;;;;11.52;3.10;;;8.10;99.90;;;;;;4916735;29;20029;-72
2022/11/26 15:56:35;;;;;;;10.68;3.20;;;8.00;99.90;;;;;;4912096;29;20085;-70
2022/11/26 15:59:05;;;;;;;8.50;3.00;;;7.90;99.90;;;;;;4897736;29;20112;-70
2022/11/26 16:01:33;;;;;;;8.98;3.60;;;7.90;99.90;;;;;;4897771;29;20048;-71
2022/11/26 16:04:03;;;;;;;9.75;3.03;;;7.90;99.90;;;;;;4912217;29;20136;-71
2022/11/26 16:06:32;;;;;;;6.85;3.00;;;7.80;99.90;;;;;;4897658;29;20168;-70
2022/11/26 16:08:58;;;;;;;11.07;3.30;;;7.70;99.90;;;;;;4897652;29;20020;-70
2022/11/26 16:11:24;;;;;;;12.60;4.53;;;7.70;99.90;;;;;;4896313;29;20032;-70
2022/11/26 16:13:50;;;;;;;12.15;4.05;;;7.80;99.90;;;;;;4898113;29;20029;-71
2022/11/26 16:16:22;;;;;;;8.73;3.63;;;7.80;99.90;;;;;;4897320;29;20493;-70
2022/11/26 16:18:59;;;;;;;10.18;4.20;;;7.70;99.90;;;;;;4896585;29;20461;-70
2022/11/26 16:21:28;;;;;;;7.40;3.72;;;7.80;99.90;;;;;;4897437;29;20033;-70
2022/11/26 16:23:59;;;;;;;12.25;4.05;;;7.70;99.90;;;;;;4898764;29;20524;-70
2022/11/26 16:26:25;;;;;;;13.13;4.30;;;7.60;99.90;;;;;;4898670;29;20108;-70
2022/11/26 16:28:51;;;;;;;8.82;3.30;;;7.50;99.90;;;;;;4898104;29;20056;-70
2022/11/26 16:31:17;;;;;;;7.65;3.75;;;7.40;99.90;;;;;;4898206;29;20039;-71
2022/11/26 16:33:43;;;;;;;6.75;3.38;;;7.40;99.90;;;;;;4898199;29;20383;-70
2022/11/26 16:36:22;;;;;;;12.85;3.95;;;7.30;99.90;;;;;;4892969;29;20029;-70
2022/11/26 16:38:48;;;;;;;13.60;4.35;;;7.20;99.90;;;;;;4879530;29;20053;-70
2022/11/26 16:41:15;;;;;;;12.05;4.45;;;7.20;99.90;;;;;;4879471;29;20501;-71
2022/11/26 16:43:41;;;;;;;11.82;4.28;;;7.20;99.90;;;;;;4882281;29;20033;-70
2022/11/26 16:46:22;;;;;;;12.13;4.40;;;7.10;99.90;;;;;;4879225;29;20025;-70
2022/11/26 16:48:49;;;;;;;8.40;3.83;;;7.10;99.90;;;;;;4879979;29;20030;-71
2022/11/26 16:51:15;;;;;;;8.68;4.13;;;7.10;99.90;;;;;;4879126;29;20037;-71
2022/11/26 16:53:41;;;;;;;11.77;3.42;;;7.10;99.90;;;;;;4893349;29;20073;-71
2022/11/26 16:56:20;;;;;;;10.80;3.85;;;7.10;99.90;;;;;;4897563;29;20100;-70
2022/11/26 16:58:46;;;;;;;9.52;4.22;;;7.10;99.90;;;;;;4897171;29;20040;-71
2022/11/26 17:01:11;;;;;;;10.13;5.00;;;7.00;99.90;;;;;;4900478;29;20484;-70
2022/11/26 17:03:37;;;;;;;12.00;4.43;;;7.00;99.90;;;;;;4901131;29;20367;-70
2022/11/26 17:06:11;;;;;;;11.23;4.43;;;7.00;99.90;;;;;;4900946;29;20025;-70
2022/11/26 17:08:36;;;;;;;9.38;5.07;;;7.00;99.90;;;;;;4901530;29;20072;-70
2022/11/26 17:11:02;;;;;;;13.70;4.27;;;7.00;99.90;;;;;;4900916;29;20384;-70
2022/11/26 17:13:29;;;;;;;9.30;4.33;;;7.00;99.90;;;;;;4915461;29;20029;-71
2022/11/26 17:15:55;;;;;;;11.68;4.93;;;7.00;99.90;;;;;;4901388;29;20017;-71
2022/11/26 17:18:23;;;;;;;10.50;4.47;;;7.00;99.90;;;;;;4901524;29;20087;-70
2022/11/26 17:20:50;;;;;;;10.82;4.80;;;6.90;99.90;;;;;;4915480;29;20033;-71
2022/11/26 17:23:16;;;;;;;17.17;8.43;;;6.90;99.90;;;;;;4900467;29;20386;-70
2022/11/26 17:25:47;;;;;;;24.50;9.80;;;6.80;99.90;;;;;;4899306;29;20036;-70
2022/11/26 17:28:13;;;;;;;21.45;9.80;;;6.80;99.90;;;;;;4917289;29;20028;-69
2022/11/26 17:30:40;;;;;;;25.05;9.77;;;6.80;99.90;;;;;;4919869;29;20378;-70
2022/11/26 17:33:07;;;;;;;29.40;12.82;;;6.80;99.90;;;;;;4918808;29;20051;-70
2022/11/26 17:35:33;;;;;;;35.50;15.68;;;6.80;99.90;;;;;;4918081;29;20053;-70
2022/11/26 17:37:58;;;;;;;31.77;17.50;;;6.80;99.90;;;;;;4919508;29;20032;-70
2022/11/26 17:40:25;;;;;;;30.27;12.53;;;6.80;99.90;;;;;;4919267;29;20035;-70
2022/11/26 17:42:51;;;;;;;30.98;13.73;;;6.70;99.90;;;;;;4919500;29;20024;-70
2022/11/26 17:45:18;;;;;;;31.00;13.17;;;6.80;99.90;;;;;;4912781;29;20084;-70
2022/11/26 17:47:44;;;;;;;30.08;14.18;;;6.90;99.90;;;;;;4910354;29;20474;-71
2022/11/26 17:50:20;;;;;;;38.97;16.75;;;6.80;99.90;;;;;;4919366;29;20035;-70
2022/11/26 17:52:47;;;;;;;46.33;20.88;;;7.00;99.90;;;;;;4919034;29;20036;-71
2022/11/26 17:55:13;;;;;;;58.45;24.90;;;7.00;99.90;;;;;;4918140;29;20029;-71
2022/11/26 17:57:38;;;;;;;36.33;14.77;;;7.10;99.90;;;;;;4902081;29;20035;-70
2022/11/26 18:00:06;;;;;;;26.70;12.23;;;7.10;99.90;;;;;;4898950;29;20033;-70
2022/11/26 18:02:32;;;;;;;28.33;12.75;;;7.10;99.90;;;;;;4923521;29;20123;-71
2022/11/26 18:04:57;;;;;;;39.90;16.17;;;7.20;99.90;;;;;;4898189;29;20516;-71
2022/11/26 18:07:23;;;;;;;44.80;18.47;;;7.20;99.90;;;;;;4900294;29;20033;-71
2022/11/26 18:09:49;;;;;;;40.53;15.70;;;7.20;99.90;;;;;;4898884;29;20389;-70
2022/11/26 18:12:23;;;;;;;40.75;16.20;;;7.20;99.90;;;;;;4914447;29;20056;-70